Time;durP1;ratioP1;P1;durP2;ratioP2;P2;SDS_P1;SDS_P2;PMS_P1;PMS_P2;Temp;Humidity;BMP_temperature;BMP_pressure;BME280_temperature;BME280_humidity;BME280_pressure;Samples;Min_cycle;Max_cycle;Signal;HPM_P1;HPM_P2
2022/01/05 00:01:17;;;;;;;3.10;2.37;;;;;;;5.69;100.00;93715.38;5055857;28;20206;-60
2022/01/05 00:03:43;;;;;;;1.77;1.60;;;;;;;5.58;100.00;93717.50;5055996;28;20233;-60
2022/01/05 00:06:08;;;;;;;2.93;1.50;;;;;;;5.57;100.00;93727.56;5056189;28;20231;-60
2022/01/05 00:08:33;;;;;;;1.27;1.17;;;;;;;5.51;100.00;93734.63;5056145;28;20203;-60
2022/01/05 00:10:59;;;;;;;1.63;1.50;;;;;;;5.47;100.00;93736.59;5073166;28;20202;-61
2022/01/05 00:13:24;;;;;;;1.97;1.50;;;;;;;5.43;100.00;93748.69;5055520;28;20217;-66
2022/01/05 00:15:49;;;;;;;2.23;1.37;;;;;;;5.40;100.00;93749.50;5055413;28;20201;-60
2022/01/05 00:18:15;;;;;;;1.50;1.20;;;;;;;5.34;100.00;93748.41;5055196;28;20203;-60
2022/01/05 00:20:41;;;;;;;1.40;1.30;;;;;;;5.32;100.00;93754.25;5055417;28;20193;-60
2022/01/05 00:23:06;;;;;;;1.50;1.40;;;;;;;5.29;100.00;93759.72;5076201;28;20194;-61
2022/01/05 00:25:32;;;;;;;1.50;1.40;;;;;;;5.29;100.00;93767.84;5058806;28;20218;-60
2022/01/05 00:27:57;;;;;;;1.50;1.40;;;;;;;5.25;100.00;93769.84;5058828;28;20221;-61
2022/01/05 00:30:22;;;;;;;1.70;1.60;;;;;;;5.24;100.00;93762.91;5058857;28;20205;-60
2022/01/05 00:32:48;;;;;;;1.60;1.50;;;;;;;5.20;100.00;93767.56;5058643;28;20208;-57
2022/01/05 00:35:13;;;;;;;1.83;1.53;;;;;;;5.09;100.00;93775.84;5059138;28;20162;-60
2022/01/05 00:37:39;;;;;;;1.47;1.30;;;;;;;5.01;100.00;93777.13;5058398;28;20199;-60
2022/01/05 00:40:06;;;;;;;1.63;1.30;;;;;;;4.95;100.00;93778.75;5058754;28;20209;-60
2022/01/05 00:42:31;;;;;;;1.30;1.20;;;;;;;4.91;100.00;93788.06;5058356;28;20197;-60
2022/01/05 00:44:57;;;;;;;1.40;1.10;;;;;;;4.79;100.00;93796.72;5058023;28;20217;-60
2022/01/05 00:47:22;;;;;;;1.17;1.10;;;;;;;4.75;100.00;93801.41;5058508;28;20205;-60
2022/01/05 00:49:47;;;;;;;1.20;1.10;;;;;;;4.65;100.00;93810.41;5058234;28;20193;-63
2022/01/05 00:52:13;;;;;;;0.90;0.90;;;;;;;4.66;100.00;93811.97;5058348;28;20190;-63
2022/01/05 00:54:40;;;;;;;0.90;0.80;;;;;;;4.58;100.00;93810.47;5058436;28;20198;-63
2022/01/05 00:57:05;;;;;;;1.00;0.70;;;;;;;4.51;100.00;93827.56;5058549;28;20199;-63
2022/01/05 00:59:31;;;;;;;0.80;0.80;;;;;;;4.43;100.00;93825.31;5058552;28;20221;-63
2022/01/05 01:01:56;;;;;;;0.93;0.83;;;;;;;4.37;100.00;93826.94;5058107;28;20193;-63
2022/01/05 01:04:21;;;;;;;0.80;0.80;;;;;;;4.22;100.00;93817.47;5058376;28;20204;-62
2022/01/05 01:06:46;;;;;;;0.77;0.77;;;;;;;4.26;100.00;93829.75;5058804;28;20201;-62
2022/01/05 01:09:13;;;;;;;0.73;0.73;;;;;;;4.24;100.00;93831.31;5058010;28;20228;-60
2022/01/05 01:11:38;;;;;;;0.70;0.70;;;;;;;4.15;100.00;93828.34;5058540;28;20197;-63
2022/01/05 01:14:04;;;;;;;1.20;0.93;;;;;;;4.16;100.00;93835.25;5057906;28;20204;-63
2022/01/05 01:16:29;;;;;;;0.83;0.80;;;;;;;4.16;100.00;93835.25;5057812;28;20201;-62
2022/01/05 01:18:54;;;;;;;0.80;0.80;;;;;;;4.07;100.00;93840.38;5057805;28;20239;-65
2022/01/05 01:21:20;;;;;;;0.90;0.70;;;;;;;4.06;100.00;93844.22;5057785;28;20205;-63
2022/01/05 01:23:55;;;;;;;0.60;0.60;;;;;;;3.93;100.00;93851.28;5058038;28;20283;-62
2022/01/05 01:26:21;;;;;;;1.40;0.60;;;;;;;3.90;100.00;93857.47;5058072;28;20209;-66
2022/01/05 01:28:46;;;;;;;0.30;0.30;;;;;;;3.89;100.00;93858.66;5057621;28;20208;-66
2022/01/05 01:31:11;;;;;;;0.50;0.50;;;;;;;3.84;100.00;93859.06;5057968;28;20205;-66
2022/01/05 01:33:37;;;;;;;0.50;0.50;;;;;;;3.85;100.00;93863.31;5056149;28;20185;-66
2022/01/05 01:36:02;;;;;;;0.50;0.50;;;;;;;3.79;100.00;93857.56;5057936;28;20225;-66
2022/01/05 01:38:28;;;;;;;0.53;0.43;;;;;;;3.77;100.00;93856.41;5057546;28;20197;-66
2022/01/05 01:40:53;;;;;;;0.50;0.50;;;;;;;3.78;100.00;93876.88;5057558;28;20200;-67
2022/01/05 01:43:18;;;;;;;0.40;0.40;;;;;;;3.76;100.00;93865.69;5057372;28;20223;-60
2022/01/05 01:45:44;;;;;;;0.60;0.60;;;;;;;3.75;100.00;93864.16;5057992;28;20215;-64
2022/01/05 01:48:09;;;;;;;0.40;0.40;;;;;;;3.68;100.00;93869.59;5057557;28;20205;-70
2022/01/05 01:50:35;;;;;;;0.90;0.60;;;;;;;3.60;100.00;93868.13;5057296;28;20192;-71
2022/01/05 01:53:00;;;;;;;0.60;0.60;;;;;;;3.60;100.00;93874.28;5057332;28;20189;-75
2022/01/05 01:55:25;;;;;;;0.43;0.43;;;;;;;3.60;100.00;93863.47;5057388;28;20209;-70
2022/01/05 01:57:51;;;;;;;0.43;0.43;;;;;;;3.49;100.00;93858.16;5057459;28;20193;-70
2022/01/05 02:00:17;;;;;;;0.50;0.50;;;;;;;3.47;100.00;93863.19;5057506;28;20198;-67
2022/01/05 02:02:45;;;;;;;0.50;0.50;;;;;;;3.41;100.00;93856.69;5057704;28;20197;-69
2022/01/05 02:05:11;;;;;;;0.83;0.60;;;;;;;3.37;100.00;93861.34;5057723;28;20193;-67
2022/01/05 02:07:36;;;;;;;0.80;0.53;;;;;;;3.35;100.00;93863.66;5057443;28;20197;-71
2022/01/05 02:10:04;;;;;;;0.80;0.80;;;;;;;3.38;100.00;93868.25;5057108;28;20205;-71
2022/01/05 02:12:30;;;;;;;0.50;0.50;;;;;;;3.37;100.00;93863.25;5057359;28;20205;-67
2022/01/05 02:14:55;;;;;;;0.80;0.70;;;;;;;3.33;100.00;93870.59;5056837;28;20205;-67
2022/01/05 02:17:28;;;;;;;0.60;0.60;;;;;;;3.26;100.00;93860.63;5056851;28;20208;-69
2022/01/05 02:19:54;;;;;;;0.50;0.50;;;;;;;3.29;100.00;93865.22;5056915;28;20193;-68
2022/01/05 02:22:19;;;;;;;0.60;0.60;;;;;;;3.32;100.00;93869.81;5056812;28;20197;-58
2022/01/05 02:24:47;;;;;;;0.97;0.80;;;;;;;3.25;100.00;93869.88;5057011;28;20247;-64
2022/01/05 02:27:14;;;;;;;2.33;1.33;;;;;;;3.28;100.00;93871.78;5056925;28;20401;-65
2022/01/05 02:29:39;;;;;;;2.40;1.73;;;;;;;3.28;100.00;93873.72;5057025;28;20254;-64
2022/01/05 02:32:05;;;;;;;1.07;0.90;;;;;;;3.27;100.00;93864.84;5057173;28;20197;-64
2022/01/05 02:34:31;;;;;;;2.40;1.60;;;;;;;3.31;100.00;93857.50;5057298;28;20173;-67
2022/01/05 02:36:56;;;;;;;1.77;1.20;;;;;;;3.26;100.00;93866.03;5073166;28;20215;-65
2022/01/05 02:39:21;;;;;;;1.43;0.80;;;;;;;3.25;100.00;93861.78;5056475;28;20189;-59
2022/01/05 02:41:46;;;;;;;1.43;1.10;;;;;;;3.26;100.00;93867.94;5074451;28;20232;-66
2022/01/05 02:44:12;;;;;;;0.80;0.80;;;;;;;3.27;100.00;93867.56;5056209;28;20208;-66
2022/01/05 02:46:37;;;;;;;0.57;0.57;;;;;;;3.20;100.00;93867.59;5056459;28;20208;-65
2022/01/05 02:49:04;;;;;;;0.40;0.40;;;;;;;3.23;100.00;93872.19;5056495;28;20315;-66
2022/01/05 02:51:30;;;;;;;0.60;0.60;;;;;;;3.21;100.00;93865.66;5056628;28;20220;-67
2022/01/05 02:53:55;;;;;;;0.40;0.40;;;;;;;3.24;100.00;93867.56;5056488;28;20201;-68
2022/01/05 02:56:21;;;;;;;0.50;0.50;;;;;;;3.20;100.00;93867.59;5074352;28;20200;-64
2022/01/05 02:58:46;;;;;;;0.50;0.50;;;;;;;3.24;100.00;93868.34;5056391;28;20551;-57
2022/01/05 03:01:11;;;;;;;0.60;0.60;;;;;;;3.23;100.00;93866.81;5056361;28;20205;-64
2022/01/05 03:03:37;;;;;;;0.50;0.50;;;;;;;3.26;100.00;93866.03;5056176;28;20208;-66
2022/01/05 03:06:02;;;;;;;0.50;0.50;;;;;;;3.29;100.00;93865.22;5056710;28;20220;-66
2022/01/05 03:08:28;;;;;;;0.63;0.63;;;;;;;3.31;100.00;93857.50;5056305;28;20224;-66
2022/01/05 03:10:55;;;;;;;0.50;0.50;;;;;;;3.33;100.00;93857.13;5056609;28;20334;-66
2022/01/05 03:13:20;;;;;;;0.80;0.60;;;;;;;3.33;100.00;93860.59;5056185;28;20193;-64
2022/01/05 03:15:46;;;;;;;0.70;0.70;;;;;;;3.32;100.00;93869.81;5056529;28;20195;-63
2022/01/05 03:18:11;;;;;;;1.53;0.70;;;;;;;3.35;100.00;93874.44;5055911;28;20201;-63
2022/01/05 03:20:36;;;;;;;0.83;0.80;;;;;;;3.37;100.00;93882.91;5056589;28;20205;-66
2022/01/05 03:23:03;;;;;;;0.40;0.40;;;;;;;3.36;100.00;93886.75;5055903;28;20587;-67
2022/01/05 03:25:29;;;;;;;0.70;0.70;;;;;;;3.36;100.00;93881.34;5056350;28;20213;-66
2022/01/05 03:27:55;;;;;;;0.70;0.70;;;;;;;3.34;100.00;93872.91;5056049;28;20200;-66
2022/01/05 03:30:23;;;;;;;1.00;0.80;;;;;;;3.32;100.00;93875.22;5056029;28;20213;-66
2022/01/05 03:35:36;;;;;;;0.80;0.80;;;;;;;3.39;100.00;93883.28;5073505;28;20199;-57
2022/01/05 03:38:03;;;;;;;3.30;2.43;;;;;;;3.38;100.00;93884.44;5056076;28;20196;-59
2022/01/05 03:40:30;;;;;;;3.83;3.00;;;;;;;3.44;100.00;93882.09;5072304;28;20193;-59
2022/01/05 03:42:56;;;;;;;2.47;1.87;;;;;;;3.43;100.00;93881.31;5055585;28;20275;-59
2022/01/05 03:45:21;;;;;;;1.23;1.13;;;;;;;3.43;100.00;93881.31;5056024;28;20205;-59
2022/01/05 03:47:46;;;;;;;0.97;0.70;;;;;;;3.42;100.00;93874.41;5055806;28;20197;-59
2022/01/05 03:50:12;;;;;;;1.10;1.00;;;;;;;3.42;100.00;93884.41;5055877;28;20250;-59
2022/01/05 03:52:37;;;;;;;0.87;0.77;;;;;;;3.42;100.00;93885.19;5055881;28;20192;-67
2022/01/05 03:55:04;;;;;;;0.80;0.80;;;;;;;3.42;100.00;93879.78;5055981;28;20204;-57
2022/01/05 03:57:30;;;;;;;0.93;0.77;;;;;;;3.45;100.00;93884.41;5058089;28;20345;-57
2022/01/05 03:59:55;;;;;;;0.60;0.60;;;;;;;3.40;100.00;93884.81;5059780;28;20205;-57
2022/01/05 04:02:21;;;;;;;0.60;0.60;;;;;;;3.37;100.00;93887.53;5059239;28;20271;-57
2022/01/05 04:04:46;;;;;;;1.40;0.40;;;;;;;3.37;100.00;93893.72;5059291;28;20208;-57
2022/01/05 04:07:13;;;;;;;0.50;0.50;;;;;;;3.36;100.00;93886.75;5059354;28;20220;-57
2022/01/05 04:09:38;;;;;;;0.73;0.60;;;;;;;3.33;100.00;93887.56;5059509;28;20196;-57
2022/01/05 04:12:04;;;;;;;0.40;0.40;;;;;;;3.31;100.00;93884.47;5058875;28;20204;-71
2022/01/05 04:14:29;;;;;;;0.50;0.50;;;;;;;3.32;100.00;93886.00;5058875;28;20201;-67
2022/01/05 04:16:55;;;;;;;0.50;0.50;;;;;;;3.35;100.00;93890.63;5058930;28;20201;-68
2022/01/05 04:19:20;;;;;;;0.50;0.50;;;;;;;3.30;100.00;93885.66;5059152;28;20249;-68
2022/01/05 04:21:45;;;;;;;1.10;0.60;;;;;;;3.27;100.00;93894.53;5058927;28;20205;-68
2022/01/05 04:24:10;;;;;;;0.50;0.50;;;;;;;3.27;100.00;93894.53;5059232;28;20292;-68
2022/01/05 04:26:36;;;;;;;0.50;0.43;;;;;;;3.25;100.00;93894.13;5058917;28;20196;-67
2022/01/05 04:29:01;;;;;;;0.67;0.40;;;;;;;3.21;100.00;93888.00;5059280;28;20244;-59
2022/01/05 04:31:26;;;;;;;0.50;0.50;;;;;;;3.19;100.00;93893.03;5058489;28;20182;-63
2022/01/05 04:33:52;;;;;;;2.27;0.57;;;;;;;3.17;100.00;93887.25;5058705;28;20228;-60
2022/01/05 04:36:17;;;;;;;0.30;0.30;;;;;;;3.17;100.00;93886.50;5058885;28;20220;-60
2022/01/05 04:38:42;;;;;;;0.50;0.50;;;;;;;3.13;100.00;93881.09;5058459;28;20287;-60
2022/01/05 04:41:08;;;;;;;0.40;0.40;;;;;;;3.14;100.00;93885.34;5058640;28;20205;-60
2022/01/05 04:43:33;;;;;;;0.50;0.50;;;;;;;3.12;100.00;93886.88;5058841;28;20205;-61
2022/01/05 04:45:58;;;;;;;0.40;0.40;;;;;;;3.06;100.00;93894.63;5058283;28;20209;-60
2022/01/05 04:48:24;;;;;;;0.50;0.50;;;;;;;3.11;100.00;93886.13;5058627;28;20197;-59
2022/01/05 04:50:49;;;;;;;0.40;0.40;;;;;;;3.11;100.00;93880.75;5058802;28;20270;-60
2022/01/05 04:53:15;;;;;;;2.00;0.50;;;;;;;3.05;100.00;93876.91;5058447;28;20199;-60
2022/01/05 04:55:42;;;;;;;0.47;0.40;;;;;;;3.05;100.00;93876.91;5058551;28;20229;-60
2022/01/05 04:58:07;;;;;;;1.03;0.43;;;;;;;3.05;100.00;93868.81;5075077;28;20200;-60
2022/01/05 05:00:32;;;;;;;0.90;0.40;;;;;;;2.99;100.00;93867.69;5058486;28;20205;-61
2022/01/05 05:02:58;;;;;;;0.50;0.50;;;;;;;2.99;100.00;93859.59;5058859;28;20260;-60
2022/01/05 05:05:23;;;;;;;0.60;0.60;;;;;;;2.96;100.00;93876.56;5058529;28;20217;-59
2022/01/05 05:07:48;;;;;;;0.40;0.40;;;;;;;2.97;100.00;93870.03;5057620;28;20197;-66
2022/01/05 05:10:14;;;;;;;0.87;0.87;;;;;;;3.01;100.00;93884.25;5058320;28;20207;-57
2022/01/05 05:12:39;;;;;;;0.50;0.50;;;;;;;3.01;100.00;93881.56;5057419;28;20209;-57
2022/01/05 05:15:05;;;;;;;0.73;0.70;;;;;;;3.03;100.00;93883.88;5058089;28;20197;-57
2022/01/05 05:17:30;;;;;;;0.50;0.50;;;;;;;3.05;100.00;93874.22;5058085;28;20200;-57
2022/01/05 05:19:55;;;;;;;1.40;1.10;;;;;;;3.04;100.00;93880.78;5058037;28;20194;-57
2022/01/05 05:22:21;;;;;;;0.67;0.67;;;;;;;3.03;100.00;93892.69;5058113;28;20193;-57
2022/01/05 05:24:46;;;;;;;1.03;0.90;;;;;;;3.05;100.00;93871.53;5057928;28;20208;-65
2022/01/05 05:27:11;;;;;;;1.00;0.90;;;;;;;3.08;100.00;93886.91;5057732;28;20193;-65
2022/01/05 05:29:37;;;;;;;0.77;0.57;;;;;;;3.08;100.00;93881.53;5058405;28;20232;-65
2022/01/05 05:32:02;;;;;;;0.50;0.50;;;;;;;3.04;100.00;93888.88;5057809;28;20225;-65
2022/01/05 05:34:28;;;;;;;0.43;0.43;;;;;;;3.05;100.00;93881.53;5058158;28;20185;-65
2022/01/05 05:36:53;;;;;;;0.90;0.70;;;;;;;3.10;100.00;93884.59;5057659;28;20204;-65
2022/01/05 05:39:18;;;;;;;1.03;0.70;;;;;;;3.09;100.00;93893.84;5057565;28;20201;-65
2022/01/05 05:41:43;;;;;;;0.50;0.47;;;;;;;3.13;100.00;93891.13;5058130;28;20193;-66
2022/01/05 05:44:09;;;;;;;0.53;0.50;;;;;;;3.13;100.00;93891.13;5057443;28;20223;-66
2022/01/05 05:46:34;;;;;;;0.70;0.70;;;;;;;3.15;100.00;93889.59;5057357;28;20221;-65
2022/01/05 05:49:00;;;;;;;0.60;0.60;;;;;;;3.17;100.00;93884.56;5075303;28;20212;-67
2022/01/05 05:51:25;;;;;;;0.60;0.60;;;;;;;3.18;100.00;93891.47;5057467;28;20291;-66
2022/01/05 05:53:51;;;;;;;2.23;1.27;;;;;;;3.19;100.00;93884.94;5057703;28;20189;-66
2022/01/05 05:56:16;;;;;;;0.50;0.50;;;;;;;3.22;100.00;93892.25;5057477;28;20197;-66
2022/01/05 05:58:41;;;;;;;0.77;0.43;;;;;;;3.21;100.00;93889.94;5057339;28;20203;-66
2022/01/05 06:01:06;;;;;;;0.40;0.40;;;;;;;3.17;100.00;93905.38;5057486;28;20193;-72
2022/01/05 06:03:32;;;;;;;0.57;0.57;;;;;;;3.16;100.00;93899.22;5057325;28;20201;-73
2022/01/05 06:05:57;;;;;;;0.40;0.40;;;;;;;3.21;100.00;93900.72;5057671;28;20208;-73
2022/01/05 06:08:22;;;;;;;0.50;0.50;;;;;;;3.26;100.00;93894.91;5057683;28;20208;-74
2022/01/05 06:10:48;;;;;;;0.63;0.50;;;;;;;3.24;100.00;93895.31;5057421;28;20197;-74
2022/01/05 06:13:14;;;;;;;0.50;0.50;;;;;;;3.23;100.00;93901.09;5057421;28;20245;-75
2022/01/05 06:15:39;;;;;;;0.80;0.50;;;;;;;3.24;100.00;93895.31;5057389;28;20220;-73
2022/01/05 06:18:04;;;;;;;0.50;0.50;;;;;;;3.23;100.00;93896.47;5057283;28;20205;-69
2022/01/05 06:20:30;;;;;;;0.43;0.40;;;;;;;3.24;100.00;93895.31;5056015;28;20287;-66
2022/01/05 06:22:55;;;;;;;0.50;0.50;;;;;;;3.28;100.00;93898.75;5056773;28;20197;-72
2022/01/05 06:25:21;;;;;;;0.50;0.50;;;;;;;3.29;100.00;93913.00;5056705;28;20215;-75
2022/01/05 06:27:46;;;;;;;5.77;0.60;;;;;;;3.30;100.00;93904.53;5057284;28;20200;-72
2022/01/05 06:30:12;;;;;;;0.53;0.43;;;;;;;3.27;100.00;93899.91;5057103;28;20228;-72
2022/01/05 06:32:42;;;;;;;0.30;0.30;;;;;;;3.31;100.00;93908.75;5057040;28;20295;-72
2022/01/05 06:35:08;;;;;;;0.80;0.53;;;;;;;3.30;100.00;93899.13;5057146;28;20229;-72
2022/01/05 06:37:33;;;;;;;0.73;0.60;;;;;;;3.32;100.00;93896.03;5057156;28;20228;-64
2022/01/05 06:39:59;;;;;;;3.13;1.43;;;;;;;3.33;100.00;93892.19;5057257;28;20196;-75
2022/01/05 06:42:24;;;;;;;0.77;0.43;;;;;;;3.37;100.00;93901.78;5057112;28;20197;-76
2022/01/05 06:44:49;;;;;;;0.33;0.33;;;;;;;3.36;100.00;93904.88;5056598;28;20217;-73
2022/01/05 06:47:15;;;;;;;0.40;0.40;;;;;;;3.39;100.00;93912.94;5056798;28;20280;-74
2022/01/05 06:49:40;;;;;;;1.07;0.50;;;;;;;3.40;100.00;93925.25;5057021;28;20200;-72
2022/01/05 06:52:06;;;;;;;0.40;0.40;;;;;;;3.41;100.00;93910.63;5056597;28;20189;-73
2022/01/05 06:54:32;;;;;;;0.53;0.53;;;;;;;3.42;100.00;93922.97;5056381;28;20200;-74
2022/01/05 06:56:57;;;;;;;0.50;0.40;;;;;;;3.44;100.00;93931.44;5056531;28;20657;-66
2022/01/05 06:59:22;;;;;;;0.50;0.50;;;;;;;3.46;100.00;93918.31;5056382;28;20193;-66
2022/01/05 07:01:48;;;;;;;0.40;0.40;;;;;;;3.49;100.00;93922.91;5056351;28;20189;-64
2022/01/05 07:04:13;;;;;;;0.70;0.50;;;;;;;3.53;100.00;93922.13;5056452;28;20201;-66
2022/01/05 07:06:39;;;;;;;0.50;0.50;;;;;;;3.54;100.00;93922.50;5056130;28;20196;-65
2022/01/05 07:09:05;;;;;;;0.30;0.30;;;;;;;3.59;100.00;93918.63;5073830;28;20173;-67
2022/01/05 07:11:31;;;;;;;1.50;1.10;;;;;;;3.62;100.00;93920.53;5056722;28;20199;-71
2022/01/05 07:13:57;;;;;;;0.40;0.40;;;;;;;3.64;100.00;93929.00;5056258;28;20201;-64
2022/01/05 07:16:22;;;;;;;1.27;0.50;;;;;;;3.63;100.00;93932.06;5056141;28;20204;-67
2022/01/05 07:18:48;;;;;;;0.40;0.40;;;;;;;3.62;100.00;93946.75;5055910;28;20197;-65
2022/01/05 07:21:13;;;;;;;0.70;0.70;;;;;;;3.61;100.00;93940.59;5056109;28;20205;-65
2022/01/05 07:23:38;;;;;;;2.33;1.40;;;;;;;3.66;100.00;93939.38;5056063;28;20250;-66
2022/01/05 07:26:04;;;;;;;0.70;0.70;;;;;;;3.72;100.00;93935.91;5055903;28;20271;-67
2022/01/05 07:28:29;;;;;;;0.40;0.40;;;;;;;3.73;100.00;93936.66;5055937;28;20193;-66
2022/01/05 07:30:54;;;;;;;0.60;0.60;;;;;;;3.75;100.00;93937.03;5056350;28;20304;-64
2022/01/05 07:33:20;;;;;;;0.63;0.60;;;;;;;3.73;100.00;93931.25;5056085;28;20193;-57
2022/01/05 07:35:45;;;;;;;1.00;0.60;;;;;;;3.70;100.00;93934.72;5055744;28;20258;-67
2022/01/05 07:38:10;;;;;;;0.57;0.57;;;;;;;3.71;100.00;93949.78;5055938;28;20255;-66
2022/01/05 07:40:35;;;;;;;0.47;0.47;;;;;;;3.74;100.00;93955.16;5056258;28;20181;-65
2022/01/05 07:43:03;;;;;;;0.73;0.73;;;;;;;3.76;100.00;93947.44;5055824;28;20201;-63
2022/01/05 07:45:28;;;;;;;0.57;0.57;;;;;;;3.78;100.00;93953.19;5055440;28;20216;-66
2022/01/05 07:47:54;;;;;;;0.60;0.60;;;;;;;3.80;100.00;93958.19;5056203;28;20201;-66
2022/01/05 07:50:19;;;;;;;0.80;0.70;;;;;;;3.82;100.00;93950.50;5055707;28;20201;-66
2022/01/05 07:52:47;;;;;;;0.40;0.40;;;;;;;3.81;100.00;93959.72;5055798;28;20193;-65
2022/01/05 07:55:12;;;;;;;0.50;0.50;;;;;;;3.80;100.00;93969.00;5055483;28;20193;-58
2022/01/05 07:57:38;;;;;;;0.60;0.60;;;;;;;3.88;100.00;93970.50;5055883;28;20288;-58
2022/01/05 08:00:07;;;;;;;0.50;0.50;;;;;;;3.88;100.00;93965.09;5055521;28;20201;-60
2022/01/05 08:02:32;;;;;;;0.67;0.60;;;;;;;3.87;100.00;93980.53;5055554;28;20201;-58
2022/01/05 08:04:57;;;;;;;1.03;0.70;;;;;;;3.95;100.00;93975.84;5055969;28;20296;-59
2022/01/05 08:07:23;;;;;;;0.60;0.60;;;;;;;3.94;100.00;93990.50;5055387;28;20220;-58
2022/01/05 08:09:48;;;;;;;0.67;0.67;;;;;;;3.99;100.00;93987.38;5056108;28;20178;-60
2022/01/05 08:12:13;;;;;;;0.57;0.57;;;;;;;3.95;100.00;93992.03;5055318;28;20193;-60
2022/01/05 08:14:38;;;;;;;0.63;0.50;;;;;;;3.89;100.00;93993.63;5055843;28;20279;-59
2022/01/05 08:17:04;;;;;;;1.30;1.00;;;;;;;3.99;100.00;93995.50;5056081;28;20209;-59
2022/01/05 08:19:29;;;;;;;0.50;0.50;;;;;;;3.97;100.00;94000.53;5055260;28;20185;-56
2022/01/05 08:21:55;;;;;;;0.83;0.60;;;;;;;3.98;100.00;94020.97;5056010;28;20197;-56
2022/01/05 08:24:20;;;;;;;0.50;0.50;;;;;;;3.97;100.00;94011.34;5055192;28;20201;-56
2022/01/05 08:26:45;;;;;;;0.87;0.87;;;;;;;3.90;100.00;94025.66;5055480;28;20189;-54
2022/01/05 08:29:11;;;;;;;0.90;0.70;;;;;;;3.91;100.00;94035.28;5055295;28;20197;-63
2022/01/05 08:31:36;;;;;;;1.00;0.90;;;;;;;3.88;100.00;94051.47;5055423;28;20193;-67
2022/01/05 08:34:01;;;;;;;0.60;0.60;;;;;;;3.91;100.00;94056.09;5054958;28;20189;-68
2022/01/05 08:36:27;;;;;;;0.50;0.50;;;;;;;3.85;100.00;94063.84;5073277;28;20197;-66
2022/01/05 08:38:52;;;;;;;0.53;0.53;;;;;;;3.89;100.00;94069.22;5054721;28;20276;-67
2022/01/05 08:41:17;;;;;;;0.50;0.50;;;;;;;3.90;100.00;94071.53;5055151;28;20180;-68
2022/01/05 08:43:43;;;;;;;0.50;0.50;;;;;;;3.90;100.00;94076.16;5057961;28;20189;-66
2022/01/05 08:46:08;;;;;;;0.87;0.70;;;;;;;3.91;100.00;94069.59;5058390;28;20209;-69
2022/01/05 08:48:33;;;;;;;0.53;0.53;;;;;;;3.90;100.00;94074.25;5057861;28;20201;-55
2022/01/05 08:50:59;;;;;;;1.40;0.70;;;;;;;3.94;100.00;94076.91;5058307;28;20227;-56
2022/01/05 08:53:24;;;;;;;0.87;0.70;;;;;;;3.98;100.00;94083.06;5059075;28;20284;-56
2022/01/05 08:55:50;;;;;;;0.70;0.70;;;;;;;3.91;100.00;94080.41;5058493;28;20201;-56
2022/01/05 08:58:19;;;;;;;2.57;0.60;;;;;;;3.91;100.00;94075.00;5058321;28;20197;-57
2022/01/05 09:00:44;;;;;;;1.47;1.00;;;;;;;4.00;100.00;94075.34;5058945;28;20200;-59
2022/01/05 09:03:13;;;;;;;0.53;0.53;;;;;;;4.00;100.00;94096.94;5057990;28;20189;-58
2022/01/05 09:05:39;;;;;;;0.70;0.70;;;;;;;3.98;100.00;94104.66;5058261;28;20266;-60
2022/01/05 09:08:05;;;;;;;0.80;0.80;;;;;;;4.06;100.00;94106.16;5058199;28;20292;-61
2022/01/05 09:10:44;;;;;;;1.10;0.60;;;;;;;4.09;100.00;94116.97;5074849;28;20216;-58
2022/01/05 09:13:10;;;;;;;1.50;0.80;;;;;;;4.11;100.00;94113.88;5058439;28;20204;-58
2022/01/05 09:15:36;;;;;;;0.80;0.80;;;;;;;4.08;100.00;94128.16;5058085;28;20197;-58
2022/01/05 09:18:01;;;;;;;0.90;0.70;;;;;;;4.19;100.00;94126.19;5058370;28;20200;-58
2022/01/05 09:20:27;;;;;;;1.00;0.60;;;;;;;4.19;100.00;94118.06;5058400;28;20189;-58
2022/01/05 09:22:52;;;;;;;0.60;0.60;;;;;;;4.09;100.00;94143.97;5075826;28;20193;-59
2022/01/05 09:25:18;;;;;;;0.60;0.60;;;;;;;4.04;100.00;94165.22;5057766;28;20201;-58
2022/01/05 09:27:45;;;;;;;0.97;0.90;;;;;;;4.02;100.00;94159.44;5057526;28;20201;-57
2022/01/05 09:30:12;;;;;;;0.90;0.90;;;;;;;3.94;100.00;94174.13;5057419;28;20197;-58
2022/01/05 09:32:38;;;;;;;1.43;1.03;;;;;;;4.00;100.00;94169.88;5058198;28;20208;-56
2022/01/05 09:35:06;;;;;;;1.07;1.00;;;;;;;3.98;100.00;94174.88;5057940;28;20197;-57
2022/01/05 09:37:35;;;;;;;1.60;1.30;;;;;;;4.04;100.00;94182.16;5058032;28;20627;-55
2022/01/05 09:42:45;;;;;;;2.23;1.30;;;;;;;3.97;100.00;94205.75;5075625;28;20207;-70
2022/01/05 09:45:16;;;;;;;1.60;1.00;;;;;;;3.90;100.00;94221.97;5057194;28;20209;-67
2022/01/05 09:48:12;;;;;;;1.40;1.30;;;;;;;3.80;100.00;94225.44;5057421;28;20261;-66
2022/01/05 09:50:49;;;;;;;2.17;1.60;;;;;;;3.80;100.00;94233.53;5057499;28;20194;-65
2022/01/05 09:53:15;;;;;;;2.10;1.70;;;;;;;3.85;100.00;94230.47;5057503;28;20210;-66
2022/01/05 09:55:41;;;;;;;4.07;1.90;;;;;;;3.69;100.00;94238.19;5056695;28;20232;-65
2022/01/05 09:58:06;;;;;;;2.00;1.90;;;;;;;3.60;100.00;94235.88;5057696;28;20250;-66
2022/01/05 10:00:31;;;;;;;3.20;2.13;;;;;;;3.59;100.00;94255.94;5057045;28;20204;-63
2022/01/05 10:02:57;;;;;;;2.17;2.00;;;;;;;3.54;100.00;94251.69;5057162;28;20205;-65
2022/01/05 10:05:23;;;;;;;3.00;1.90;;;;;;;3.51;100.00;94254.41;5057039;28;20212;-66
2022/01/05 10:07:48;;;;;;;2.40;2.20;;;;;;;3.53;100.00;94265.56;5057409;28;20279;-66
2022/01/05 10:10:14;;;;;;;2.43;2.23;;;;;;;3.43;100.00;94259.00;5057668;28;20339;-66
2022/01/05 10:12:39;;;;;;;2.97;2.40;;;;;;;3.48;100.00;94282.94;5074929;28;20219;-66
2022/01/05 10:15:05;;;;;;;2.53;2.30;;;;;;;3.41;100.00;94282.13;5057197;28;20197;-66
2022/01/05 10:17:33;;;;;;;2.60;2.40;;;;;;;3.34;100.00;94288.31;5057101;28;20193;-66
2022/01/05 10:20:10;;;;;;;3.83;3.40;;;;;;;3.39;100.00;94279.06;5057611;28;20215;-65
2022/01/05 10:22:38;;;;;;;2.83;2.63;;;;;;;3.46;100.00;94284.44;5057355;28;20175;-67
2022/01/05 10:25:04;;;;;;;2.70;2.50;;;;;;;3.65;100.00;94278.69;5056480;28;20263;-67
2022/01/05 10:27:30;;;;;;;2.50;2.30;;;;;;;3.81;100.00;94289.06;5057722;28;20208;-67
2022/01/05 10:30:14;;;;;;;3.37;2.60;;;;;;;3.90;100.00;94294.84;5056896;28;20217;-67
2022/01/05 10:32:44;;;;;;;3.13;2.83;;;;;;;4.01;100.00;94298.31;5057575;28;20232;-69
2022/01/05 10:35:13;;;;;;;2.90;2.60;;;;;;;4.01;100.00;94303.72;5056823;28;20236;-68
2022/01/05 10:37:44;;;;;;;2.50;2.30;;;;;;;3.97;100.00;94308.34;5057039;28;20229;-66
2022/01/05 10:40:20;;;;;;;2.37;2.27;;;;;;;3.92;100.00;94312.22;5057130;28;20197;-68
2022/01/05 10:42:51;;;;;;;3.67;2.93;;;;;;;4.03;100.00;94312.19;5056941;28;20228;-68
2022/01/05 10:45:19;;;;;;;2.20;2.10;;;;;;;4.01;100.00;94314.53;5056206;28;20606;-67
2022/01/05 10:48:04;;;;;;;4.73;2.30;;;;;;;4.08;100.00;94317.22;5056756;28;20224;-68
2022/01/05 10:50:29;;;;;;;3.10;2.30;;;;;;;4.14;100.00;94323.75;5057046;28;20193;-68
2022/01/05 10:52:56;;;;;;;3.73;2.13;;;;;;;4.20;100.00;94327.59;5056122;28;20189;-68
2022/01/05 10:55:25;;;;;;;2.80;2.10;;;;;;;4.24;100.00;94333.78;5056584;28;20197;-67
2022/01/05 10:58:02;;;;;;;2.40;2.20;;;;;;;4.22;100.00;94341.50;5056592;28;20280;-64
2022/01/05 11:00:37;;;;;;;3.23;2.27;;;;;;;4.41;100.00;94339.13;5073603;28;20206;-60
2022/01/05 11:03:19;;;;;;;2.40;2.10;;;;;;;4.23;100.00;94343.03;5056752;28;20196;-60
2022/01/05 11:06:06;;;;;;;5.00;2.53;;;;;;;4.01;100.00;94353.09;5056306;28;20216;-60
2022/01/05 11:08:46;;;;;;;3.50;1.83;;;;;;;4.08;100.00;94346.91;5056286;28;20212;-60
2022/01/05 11:11:27;;;;;;;3.10;2.10;;;;;;;3.99;100.00;94349.22;5056324;28;20288;-59
2022/01/05 11:13:53;;;;;;;2.93;2.30;;;;;;;3.91;100.00;94355.78;5056128;28;20204;-60
2022/01/05 11:16:25;;;;;;;2.83;2.10;;;;;;;3.96;100.00;94366.22;5056452;28;20205;-69
2022/01/05 11:18:50;;;;;;;1.90;1.70;;;;;;;3.96;100.00;94382.44;5055897;28;20182;-70
2022/01/05 11:21:18;;;;;;;2.50;1.63;;;;;;;3.83;100.00;94383.94;5056728;28;20216;-70
2022/01/05 11:23:44;;;;;;;2.53;1.97;;;;;;;3.74;100.00;94402.44;5055852;28;20193;-69
2022/01/05 11:26:09;;;;;;;2.93;1.93;;;;;;;3.70;100.00;94396.25;5055552;28;20209;-70
2022/01/05 11:28:35;;;;;;;2.17;1.90;;;;;;;3.64;100.00;94405.91;5056166;28;20206;-69
2022/01/05 11:31:00;;;;;;;1.80;1.70;;;;;;;3.64;100.00;94397.81;5055960;28;20216;-67
2022/01/05 11:33:25;;;;;;;2.87;2.10;;;;;;;3.58;100.00;94400.88;5055917;28;20204;-66
2022/01/05 11:35:51;;;;;;;2.17;1.70;;;;;;;3.47;100.00;94400.09;5056024;28;20208;-63